createdAt,value
2018-04-15T00:00:13.576Z,4.57
2018-04-15T00:02:39.943Z,4.00
2018-04-15T00:05:06.196Z,4.37
2018-04-15T00:07:32.457Z,4.23
2018-04-15T00:09:58.771Z,3.90
2018-04-15T00:12:25.015Z,4.53
2018-04-15T00:14:51.267Z,4.57
2018-04-15T00:17:17.559Z,5.17
2018-04-15T00:19:44.475Z,4.93
2018-04-15T00:22:10.743Z,5.07
2018-04-15T00:24:37.020Z,4.63
2018-04-15T00:27:03.478Z,5.27
2018-04-15T00:29:29.732Z,5.70
2018-04-15T00:31:56.012Z,5.03
2018-04-15T00:34:22.271Z,6.00
2018-04-15T00:36:48.514Z,5.60
2018-04-15T00:39:14.812Z,5.30
2018-04-15T00:41:41.104Z,6.90
2018-04-15T00:44:07.353Z,7.77
2018-04-15T00:46:34.020Z,6.60
2018-04-15T00:49:00.276Z,5.90
2018-04-15T00:51:26.542Z,6.07
2018-04-15T00:54:05.012Z,6.30
2018-04-15T00:56:31.270Z,6.10
2018-04-15T00:58:57.751Z,5.60
2018-04-15T01:01:24.075Z,5.90
2018-04-15T01:03:50.352Z,5.13
2018-04-15T01:06:16.613Z,6.23
2018-04-15T01:08:42.912Z,5.83
2018-04-15T01:11:09.152Z,5.67
2018-04-15T01:13:35.410Z,5.40
2018-04-15T01:16:01.703Z,5.10
2018-04-15T01:18:27.953Z,5.63
2018-04-15T01:20:54.202Z,4.97
2018-04-15T01:23:20.487Z,5.40
2018-04-15T01:25:46.797Z,5.57
2018-04-15T01:28:13.064Z,4.90
2018-04-15T01:30:39.371Z,5.33
2018-04-15T01:33:05.652Z,5.27
2018-04-15T01:35:31.917Z,5.97
2018-04-15T01:37:58.208Z,5.73
2018-04-15T01:40:24.467Z,5.97
2018-04-15T01:42:50.728Z,5.17
2018-04-15T01:45:17.015Z,5.17
2018-04-15T01:47:43.304Z,5.67
2018-04-15T01:50:09.558Z,5.53
2018-04-15T01:52:35.929Z,5.33
2018-04-15T01:55:02.212Z,5.43
2018-04-15T01:57:28.589Z,5.60
2018-04-15T01:59:54.890Z,5.17
2018-04-15T02:02:21.156Z,5.43
2018-04-15T02:04:47.407Z,5.10
2018-04-15T02:07:13.679Z,5.30
2018-04-15T02:09:39.926Z,5.70
2018-04-15T02:12:06.189Z,5.13
2018-04-15T02:14:32.490Z,4.90
2018-04-15T02:16:58.759Z,5.27
2018-04-15T02:19:25.068Z,5.17
2018-04-15T02:21:51.363Z,5.13
2018-04-15T02:24:17.610Z,5.10
2018-04-15T02:26:43.878Z,5.00
2018-04-15T02:29:10.371Z,4.80
2018-04-15T02:31:36.632Z,5.07
2018-04-15T02:34:02.925Z,5.27
2018-04-15T02:36:29.231Z,5.13
2018-04-15T02:38:55.531Z,5.43
2018-04-15T02:41:21.822Z,5.53
2018-04-15T02:43:48.140Z,5.90
2018-04-15T02:46:14.427Z,4.83
2018-04-15T02:48:40.723Z,5.40
2018-04-15T02:51:07.334Z,4.77
2018-04-15T02:53:33.586Z,5.10
2018-04-15T02:55:59.880Z,5.90
2018-04-15T02:58:26.207Z,4.53
2018-04-15T03:00:52.492Z,5.40
2018-04-15T03:03:18.747Z,4.50
2018-04-15T03:05:45.122Z,4.40
2018-04-15T03:08:11.393Z,4.70
2018-04-15T03:10:37.719Z,4.47
2018-04-15T03:13:03.996Z,4.10
2018-04-15T03:15:30.292Z,5.30
2018-04-15T03:17:56.552Z,4.63
2018-04-15T03:20:22.836Z,5.50
2018-04-15T03:22:49.107Z,4.60
2018-04-15T03:25:15.364Z,4.33
2018-04-15T03:27:41.664Z,4.57
2018-04-15T03:30:07.917Z,4.27
2018-04-15T03:32:34.191Z,3.90
2018-04-15T03:35:00.483Z,4.40
2018-04-15T03:37:26.730Z,3.90
2018-04-15T03:39:53.250Z,3.90
2018-04-15T03:42:19.534Z,3.93
2018-04-15T03:44:45.796Z,3.87
2018-04-15T03:47:12.071Z,4.07
2018-04-15T03:49:38.358Z,3.77
2018-04-15T03:52:04.620Z,3.53
2018-04-15T03:54:30.900Z,4.20
2018-04-15T03:56:57.219Z,3.90
2018-04-15T03:59:23.487Z,3.53
2018-04-15T04:01:49.791Z,3.97
2018-04-15T04:04:16.076Z,4.37
2018-04-15T04:06:42.329Z,3.43
2018-04-15T04:09:08.589Z,3.77
2018-04-15T04:11:34.883Z,3.90
2018-04-15T04:14:01.144Z,3.30
2018-04-15T04:16:27.400Z,3.30
2018-04-15T04:19:05.778Z,2.83
2018-04-15T04:21:44.095Z,3.00
2018-04-15T04:24:22.499Z,3.20
2018-04-15T04:26:48.753Z,3.33
2018-04-15T04:29:15.033Z,3.20
2018-04-15T04:31:41.315Z,2.73
2018-04-15T04:34:07.567Z,3.10
2018-04-15T04:36:33.821Z,2.47
2018-04-15T04:39:00.318Z,4.07
2018-04-15T04:41:26.561Z,2.97
2018-04-15T04:43:52.799Z,2.97
2018-04-15T04:46:19.091Z,2.67
2018-04-15T04:48:45.347Z,3.30
2018-04-15T04:51:11.606Z,3.10
2018-04-15T04:53:37.895Z,3.10
2018-04-15T04:56:04.150Z,2.60
2018-04-15T04:58:30.420Z,2.63
2018-04-15T05:00:56.712Z,3.20
2018-04-15T05:03:22.975Z,2.90
2018-04-15T05:05:49.259Z,3.03
2018-04-15T05:08:15.540Z,2.67
2018-04-15T05:10:41.784Z,2.53
2018-04-15T05:13:08.044Z,3.17
2018-04-15T05:15:34.331Z,2.47
2018-04-15T05:18:00.615Z,2.73
2018-04-15T05:20:26.959Z,2.87
2018-04-15T05:22:53.297Z,2.63
2018-04-15T05:25:19.595Z,2.93
2018-04-15T05:27:45.838Z,3.43
2018-04-15T05:30:12.434Z,2.73
2018-04-15T05:32:38.754Z,3.03
2018-04-15T05:35:05.055Z,3.10
2018-04-15T05:37:31.366Z,2.90
2018-04-15T05:39:57.613Z,3.20
2018-04-15T05:42:23.860Z,3.20
2018-04-15T05:44:50.155Z,2.93
2018-04-15T05:47:16.391Z,3.07
2018-04-15T05:49:42.642Z,3.30
2018-04-15T05:52:08.932Z,2.90
2018-04-15T05:54:35.195Z,3.00
2018-04-15T05:57:01.471Z,2.93
2018-04-15T05:59:27.846Z,2.70
2018-04-15T06:01:54.112Z,2.40
2018-04-15T06:04:20.362Z,3.20
2018-04-15T06:06:46.677Z,3.00
2018-04-15T06:09:12.944Z,2.63
2018-04-15T06:11:39.223Z,2.43
2018-04-15T06:14:05.507Z,3.07
2018-04-15T06:16:32.135Z,2.73
2018-04-15T06:18:58.379Z,3.10
2018-04-15T06:21:24.723Z,2.80
2018-04-15T06:23:50.987Z,2.80
2018-04-15T06:26:17.239Z,3.30
2018-04-15T06:28:43.548Z,2.60
2018-04-15T06:31:09.820Z,2.67
2018-04-15T06:33:36.115Z,3.07
2018-04-15T06:36:02.398Z,3.23
2018-04-15T06:38:28.676Z,2.87
2018-04-15T06:40:54.919Z,3.80
2018-04-15T06:43:21.204Z,3.87
2018-04-15T06:45:47.451Z,3.30
2018-04-15T06:48:13.732Z,3.27
2018-04-15T06:50:40.022Z,3.33
2018-04-15T06:53:06.274Z,4.03
2018-04-15T06:55:32.592Z,3.53
2018-04-15T06:57:58.904Z,3.40
2018-04-15T07:00:25.192Z,3.03
2018-04-15T07:02:51.446Z,3.30
2018-04-15T07:05:17.743Z,3.53
2018-04-15T07:07:44.032Z,4.40
2018-04-15T07:10:10.271Z,3.53
2018-04-15T07:12:36.580Z,3.23
2018-04-15T07:15:03.036Z,3.50
2018-04-15T07:17:29.716Z,4.00
2018-04-15T07:19:56.043Z,3.77
2018-04-15T07:22:22.355Z,3.80
2018-04-15T07:24:48.636Z,3.83
2018-04-15T07:27:14.966Z,3.50
2018-04-15T07:29:41.211Z,4.30
2018-04-15T07:32:07.453Z,3.50
2018-04-15T07:34:33.739Z,3.57
2018-04-15T07:37:00.010Z,7.90
2018-04-15T07:39:26.272Z,10.97
2018-04-15T07:41:52.602Z,4.73
2018-04-15T07:44:18.880Z,3.60
2018-04-15T07:46:45.138Z,3.53
2018-04-15T07:49:11.419Z,3.70
2018-04-15T07:51:37.697Z,3.10
2018-04-15T07:54:10.871Z,3.10
2018-04-15T07:56:37.136Z,2.90
2018-04-15T07:59:03.383Z,2.93
2018-04-15T08:01:29.719Z,3.00
2018-04-15T08:03:55.966Z,3.13
2018-04-15T08:06:22.235Z,3.00
2018-04-15T08:08:48.529Z,3.10
2018-04-15T08:11:14.775Z,3.17
2018-04-15T08:13:41.056Z,2.83
2018-04-15T08:16:07.414Z,3.20
2018-04-15T08:18:33.659Z,2.83
2018-04-15T08:20:59.987Z,3.30
2018-04-15T08:23:26.271Z,3.47
2018-04-15T08:25:52.633Z,3.20
2018-04-15T08:28:18.869Z,2.97
2018-04-15T08:30:45.168Z,3.00
2018-04-15T08:33:11.424Z,2.92
2018-04-15T08:35:37.696Z,3.20
2018-04-15T08:38:04.204Z,3.30
2018-04-15T08:40:30.490Z,2.90
2018-04-15T08:42:57.291Z,2.85
2018-04-15T08:45:23.562Z,2.97
2018-04-15T08:47:49.849Z,2.87
2018-04-15T08:50:16.109Z,2.90
2018-04-15T08:52:42.395Z,2.60
2018-04-15T08:55:08.648Z,2.92
2018-04-15T08:57:34.889Z,3.90
2018-04-15T09:00:01.172Z,3.40
2018-04-15T09:02:27.418Z,2.80
2018-04-15T09:04:53.834Z,2.95
2018-04-15T09:07:20.111Z,2.65
2018-04-15T09:09:46.417Z,4.53
2018-04-15T09:12:12.669Z,13.25
2018-04-15T09:14:38.931Z,3.22
2018-04-15T09:17:05.167Z,3.00
2018-04-15T09:19:31.443Z,2.65
2018-04-15T09:21:57.718Z,3.08
2018-04-15T09:24:23.962Z,2.53
2018-04-15T09:26:50.190Z,2.55
2018-04-15T09:29:16.494Z,2.58
2018-04-15T09:31:42.800Z,2.50
2018-04-15T09:34:09.099Z,2.55
2018-04-15T09:36:35.373Z,2.45
2018-04-15T09:39:01.619Z,2.42
2018-04-15T09:41:27.883Z,2.22
2018-04-15T09:43:54.427Z,2.42
2018-04-15T09:46:21.889Z,2.70
2018-04-15T09:48:48.148Z,2.20
2018-04-15T09:51:14.531Z,2.50
2018-04-15T09:53:40.770Z,2.62
2018-04-15T09:56:07.010Z,2.55
2018-04-15T09:58:33.289Z,2.70
2018-04-15T10:01:02.496Z,2.50
2018-04-15T10:03:28.788Z,2.40
2018-04-15T10:05:55.066Z,2.22
2018-04-15T10:08:21.300Z,2.35
2018-04-15T10:10:47.564Z,2.55
2018-04-15T10:13:13.878Z,2.30
2018-04-15T10:15:40.130Z,2.40
2018-04-15T10:18:06.391Z,3.10
2018-04-15T10:20:32.923Z,2.95
2018-04-15T10:22:59.212Z,2.60
2018-04-15T10:25:25.472Z,2.33
2018-04-15T10:27:51.807Z,2.00
2018-04-15T10:30:18.095Z,2.28
2018-04-15T10:32:44.452Z,2.60
2018-04-15T10:35:10.743Z,2.50
2018-04-15T10:37:36.991Z,2.40
2018-04-15T10:40:03.386Z,2.20
2018-04-15T10:42:29.680Z,2.10
2018-04-15T10:44:56.246Z,2.05
2018-04-15T10:47:22.507Z,3.20
2018-04-15T10:49:48.923Z,2.30
2018-04-15T10:52:15.159Z,2.28
2018-04-15T10:54:41.473Z,2.20
2018-04-15T10:57:07.723Z,2.20
2018-04-15T10:59:34.470Z,2.70
2018-04-15T11:02:00.726Z,2.42
2018-04-15T11:04:27.076Z,2.28
2018-04-15T11:06:53.359Z,2.28
2018-04-15T11:09:19.620Z,2.40
2018-04-15T11:11:45.894Z,2.60
2018-04-15T11:14:12.260Z,2.45
2018-04-15T11:16:38.497Z,2.10
2018-04-15T11:19:04.791Z,2.37
2018-04-15T11:21:31.067Z,2.33
2018-04-15T11:23:57.369Z,2.90
2018-04-15T11:26:23.650Z,2.20
2018-04-15T11:28:49.908Z,9.50
2018-04-15T11:31:16.259Z,14.70
2018-04-15T11:33:42.527Z,3.15
2018-04-15T11:36:08.803Z,2.90
2018-04-15T11:38:35.039Z,2.47
2018-04-15T11:41:01.296Z,2.15
2018-04-15T11:43:27.555Z,2.20
2018-04-15T11:45:53.818Z,2.22
2018-04-15T11:48:20.119Z,3.00
2018-04-15T11:50:46.379Z,3.85
2018-04-15T11:53:12.617Z,2.37
2018-04-15T11:55:38.942Z,2.70
2018-04-15T11:58:05.194Z,2.40
2018-04-15T12:00:31.419Z,2.00
2018-04-15T12:02:57.682Z,3.10
2018-04-15T12:05:23.967Z,2.72
2018-04-15T12:07:50.207Z,2.60
2018-04-15T12:10:16.522Z,2.42
2018-04-15T12:12:42.767Z,2.55
2018-04-15T12:15:09.015Z,2.33
2018-04-15T12:17:35.278Z,2.42
2018-04-15T12:20:01.539Z,2.70
2018-04-15T12:22:27.775Z,2.53
2018-04-15T12:24:54.075Z,2.65
2018-04-15T12:27:20.337Z,2.50
2018-04-15T12:29:46.583Z,2.65
2018-04-15T12:32:12.866Z,2.53
2018-04-15T12:34:39.137Z,2.53
2018-04-15T12:37:05.475Z,2.50
2018-04-15T12:39:31.744Z,2.40
2018-04-15T12:41:57.980Z,2.30
2018-04-15T12:44:24.239Z,3.08
2018-04-15T12:46:50.560Z,3.60
2018-04-15T12:49:16.802Z,3.05
2018-04-15T12:51:43.033Z,3.08
2018-04-15T12:54:09.302Z,2.70
2018-04-15T12:56:35.530Z,2.87
2018-04-15T12:59:01.775Z,2.53
2018-04-15T13:01:28.095Z,3.20
2018-04-15T13:03:54.374Z,3.12
2018-04-15T13:06:20.607Z,2.92
2018-04-15T13:08:46.888Z,3.33
2018-04-15T13:11:13.122Z,3.05
2018-04-15T13:13:39.366Z,3.08
2018-04-15T13:16:05.643Z,3.10
2018-04-15T13:18:31.882Z,3.05
2018-04-15T13:20:58.119Z,3.15
2018-04-15T13:23:24.399Z,2.83
2018-04-15T13:25:50.725Z,2.85
2018-04-15T13:28:16.962Z,2.70
2018-04-15T13:30:43.256Z,2.25
2018-04-15T13:33:09.518Z,2.60
2018-04-15T13:35:35.784Z,2.80
2018-04-15T13:38:02.059Z,2.47
2018-04-15T13:40:28.321Z,2.17
2018-04-15T13:42:54.558Z,2.90
2018-04-15T13:45:20.834Z,2.62
2018-04-15T13:47:47.076Z,2.33
2018-04-15T13:50:13.319Z,2.45
2018-04-15T13:52:39.607Z,2.37
2018-04-15T13:55:05.855Z,2.78
2018-04-15T13:57:32.224Z,2.40
2018-04-15T13:59:58.508Z,2.20
2018-04-15T14:02:24.743Z,2.35
2018-04-15T14:04:50.984Z,2.35
2018-04-15T14:07:17.272Z,2.60
2018-04-15T14:09:43.515Z,2.30
2018-04-15T14:12:09.775Z,2.60
2018-04-15T14:14:36.037Z,2.47
2018-04-15T14:17:02.280Z,2.50
2018-04-15T14:19:28.530Z,2.90
2018-04-15T14:21:54.860Z,2.55
2018-04-15T14:24:21.092Z,2.33
2018-04-15T14:26:47.344Z,2.30
2018-04-15T14:29:13.620Z,2.28
2018-04-15T14:31:39.855Z,2.22
2018-04-15T14:34:06.111Z,2.42
2018-04-15T14:36:32.411Z,2.60
2018-04-15T14:38:58.693Z,2.35
2018-04-15T14:41:24.999Z,2.37
2018-04-15T14:43:51.271Z,2.30
2018-04-15T14:46:17.531Z,2.72
2018-04-15T14:48:43.776Z,2.55
2018-04-15T14:51:10.043Z,2.17
2018-04-15T14:53:36.283Z,2.30
2018-04-15T14:56:02.548Z,2.67
2018-04-15T14:58:28.927Z,2.20
2018-04-15T15:00:55.172Z,1.85
2018-04-15T15:03:21.455Z,2.40
2018-04-15T15:05:47.795Z,2.35
2018-04-15T15:08:14.039Z,2.47
2018-04-15T15:10:40.459Z,2.42
2018-04-15T15:13:06.724Z,3.03
2018-04-15T15:15:32.974Z,2.75
2018-04-15T15:17:59.247Z,2.55
2018-04-15T15:20:25.522Z,2.25
2018-04-15T15:22:51.757Z,2.60
2018-04-15T15:25:17.987Z,2.67
2018-04-15T15:27:44.295Z,2.20
2018-04-15T15:30:10.538Z,7.00
2018-04-15T15:32:36.842Z,4.90
2018-04-15T15:35:03.137Z,2.83
2018-04-15T15:37:29.379Z,2.50
2018-04-15T15:39:55.617Z,2.25
2018-04-15T15:42:21.889Z,2.65
2018-04-15T15:44:48.230Z,2.67
2018-04-15T15:47:14.471Z,2.55
2018-04-15T15:49:40.768Z,2.87
2018-04-15T15:52:07.015Z,2.70
2018-04-15T15:54:33.499Z,2.73
2018-04-15T15:56:59.781Z,2.77
2018-04-15T15:59:26.096Z,3.00
2018-04-15T16:01:52.336Z,2.87
2018-04-15T16:04:18.624Z,3.27
2018-04-15T16:06:44.926Z,3.30
2018-04-15T16:09:11.166Z,2.63
2018-04-15T16:11:37.458Z,2.60
2018-04-15T16:14:03.731Z,2.53
2018-04-15T16:16:30.032Z,3.10
2018-04-15T16:18:56.331Z,3.00
2018-04-15T16:21:22.591Z,2.97
2018-04-15T16:23:48.998Z,2.50
2018-04-15T16:26:15.282Z,2.67
2018-04-15T16:28:41.550Z,3.50
2018-04-15T16:31:07.929Z,3.30
2018-04-15T16:33:34.210Z,3.17
2018-04-15T16:36:00.527Z,10.47
2018-04-15T16:38:26.774Z,12.27
2018-04-15T16:40:53.104Z,8.80
2018-04-15T16:43:19.383Z,4.90
2018-04-15T16:45:45.628Z,4.27
2018-04-15T16:48:11.910Z,4.27
2018-04-15T16:50:38.163Z,4.70
2018-04-15T16:53:04.531Z,7.07
2018-04-15T16:55:30.883Z,4.93
2018-04-15T16:57:57.126Z,4.83
2018-04-15T17:00:23.420Z,3.90
2018-04-15T17:02:49.695Z,3.97
2018-04-15T17:05:15.949Z,18.37
2018-04-15T17:07:42.183Z,10.23
2018-04-15T17:10:09.447Z,4.90
2018-04-15T17:12:35.698Z,3.60
2018-04-15T17:15:01.984Z,3.93
2018-04-15T17:17:28.295Z,3.10
2018-04-15T17:19:54.742Z,3.00
2018-04-15T17:22:21.004Z,4.37
2018-04-15T17:24:47.322Z,5.13
2018-04-15T17:27:13.600Z,4.07
2018-04-15T17:29:39.844Z,3.50
2018-04-15T17:32:06.127Z,3.00
2018-04-15T17:34:32.393Z,2.97
2018-04-15T17:36:58.638Z,3.00
2018-04-15T17:39:24.961Z,3.13
2018-04-15T17:41:51.242Z,2.80
2018-04-15T17:44:17.497Z,3.00
2018-04-15T17:46:43.799Z,3.10
2018-04-15T17:49:10.036Z,3.50
2018-04-15T17:51:36.278Z,3.10
2018-04-15T17:54:02.593Z,2.73
2018-04-15T17:56:28.850Z,3.17
2018-04-15T17:58:55.134Z,2.67
2018-04-15T18:01:21.423Z,2.83
2018-04-15T18:03:47.674Z,2.90
2018-04-15T18:06:13.917Z,2.37
2018-04-15T18:08:40.187Z,2.40
2018-04-15T18:11:06.427Z,2.73
2018-04-15T18:13:32.675Z,3.73
2018-04-15T18:15:58.960Z,3.43
2018-04-15T18:18:25.211Z,3.73
2018-04-15T18:20:51.479Z,5.63
2018-04-15T18:23:17.765Z,4.67
2018-04-15T18:25:44.023Z,4.43
2018-04-15T18:28:10.342Z,6.17
2018-04-15T18:30:36.637Z,11.10
2018-04-15T18:33:02.901Z,9.97
2018-04-15T18:35:29.134Z,11.33
2018-04-15T18:37:55.495Z,10.90
2018-04-15T18:40:21.775Z,12.60
2018-04-15T18:42:48.029Z,11.90
2018-04-15T18:45:14.310Z,8.73
2018-04-15T18:47:40.587Z,7.80
2018-04-15T18:50:06.884Z,6.60
2018-04-15T18:52:33.158Z,5.20
2018-04-15T18:54:59.479Z,4.77
2018-04-15T18:57:25.734Z,4.50
2018-04-15T18:59:52.036Z,4.10
2018-04-15T19:02:18.283Z,4.10
2018-04-15T19:04:44.570Z,3.57
2018-04-15T19:07:10.843Z,3.73
2018-04-15T19:09:37.088Z,3.63
2018-04-15T19:12:03.330Z,3.30
2018-04-15T19:14:29.617Z,3.00
2018-04-15T19:16:55.899Z,2.83
2018-04-15T19:19:22.180Z,3.13
2018-04-15T19:21:48.601Z,3.43
2018-04-15T19:24:14.848Z,3.43
2018-04-15T19:26:41.123Z,3.60
2018-04-15T19:29:07.403Z,4.07
2018-04-15T19:31:33.645Z,3.57
2018-04-15T19:33:59.880Z,3.40
2018-04-15T19:36:26.188Z,3.60
2018-04-15T19:38:52.439Z,3.73
2018-04-15T19:41:18.706Z,3.93
2018-04-15T19:43:45.040Z,3.23
2018-04-15T19:46:11.339Z,3.20
2018-04-15T19:48:37.735Z,3.40
2018-04-15T19:51:04.077Z,4.07
2018-04-15T19:53:30.311Z,4.00
2018-04-15T19:55:56.604Z,3.73
2018-04-15T19:58:22.883Z,3.77
2018-04-15T20:00:49.134Z,3.87
2018-04-15T20:03:15.366Z,3.93
2018-04-15T20:05:41.657Z,3.77
2018-04-15T20:08:07.902Z,3.80
2018-04-15T20:10:34.158Z,3.30
2018-04-15T20:13:00.444Z,3.50
2018-04-15T20:15:26.678Z,3.30
2018-04-15T20:17:53.019Z,3.37
2018-04-15T20:20:19.299Z,3.43
2018-04-15T20:22:45.540Z,3.33
2018-04-15T20:25:11.782Z,3.63
2018-04-15T20:27:38.047Z,2.97
2018-04-15T20:30:04.316Z,3.30
2018-04-15T20:32:30.580Z,3.37
2018-04-15T20:34:57.021Z,2.80
2018-04-15T20:37:23.467Z,3.17
2018-04-15T20:39:49.751Z,3.57
2018-04-15T20:42:16.022Z,2.87
2018-04-15T20:44:42.307Z,3.10
2018-04-15T20:47:08.566Z,2.63
2018-04-15T20:49:34.864Z,3.00
2018-04-15T20:52:01.110Z,3.17
2018-04-15T20:54:27.370Z,3.20
2018-04-15T20:56:53.699Z,2.80
2018-04-15T20:59:19.930Z,2.73
2018-04-15T21:01:46.187Z,2.80
2018-04-15T21:04:12.471Z,2.53
2018-04-15T21:06:38.897Z,3.20
2018-04-15T21:09:06.972Z,3.13
2018-04-15T21:11:33.288Z,2.87
2018-04-15T21:13:59.552Z,4.03
2018-04-15T21:16:25.792Z,3.40
2018-04-15T21:18:52.060Z,3.37
2018-04-15T21:21:18.541Z,3.73
2018-04-15T21:23:44.800Z,3.97
2018-04-15T21:26:11.091Z,3.57
2018-04-15T21:28:37.331Z,3.53
2018-04-15T21:31:03.568Z,3.83
2018-04-15T21:33:29.851Z,3.90
2018-04-15T21:35:56.099Z,3.47
2018-04-15T21:38:22.424Z,3.90
2018-04-15T21:40:48.722Z,3.87
2018-04-15T21:43:15.088Z,3.23
2018-04-15T21:45:41.365Z,3.50
2018-04-15T21:48:07.671Z,3.50
2018-04-15T21:50:34.000Z,3.67
2018-04-15T21:53:00.300Z,3.70
2018-04-15T21:55:26.576Z,3.37
2018-04-15T21:57:52.833Z,3.93
2018-04-15T22:00:19.108Z,4.07
2018-04-15T22:02:45.423Z,3.93
2018-04-15T22:05:11.690Z,3.67
2018-04-15T22:07:37.922Z,3.90
2018-04-15T22:10:04.198Z,4.03
2018-04-15T22:12:30.431Z,4.37
2018-04-15T22:14:56.680Z,4.23
2018-04-15T22:17:22.966Z,4.10
2018-04-15T22:19:49.215Z,3.63
2018-04-15T22:22:15.462Z,3.60
2018-04-15T22:24:41.799Z,3.97
2018-04-15T22:27:08.083Z,4.13
2018-04-15T22:29:34.335Z,4.10
2018-04-15T22:32:00.610Z,3.60
2018-04-15T22:34:26.858Z,4.43
2018-04-15T22:36:53.120Z,3.93
2018-04-15T22:39:19.392Z,4.57
2018-04-15T22:41:45.629Z,4.50
2018-04-15T22:44:11.895Z,6.00
2018-04-15T22:46:38.171Z,4.63
2018-04-15T22:49:10.546Z,5.13
2018-04-15T22:51:36.828Z,4.67
2018-04-15T22:54:03.112Z,5.70
2018-04-15T22:56:35.255Z,4.13
2018-04-15T22:59:01.498Z,5.13
2018-04-15T23:01:27.797Z,4.90
2018-04-15T23:03:54.042Z,5.20
2018-04-15T23:06:20.307Z,4.90
2018-04-15T23:08:46.586Z,4.80
2018-04-15T23:11:12.820Z,4.43
2018-04-15T23:13:39.051Z,6.23
2018-04-15T23:16:05.355Z,5.53
2018-04-15T23:18:31.658Z,5.23
2018-04-15T23:20:57.901Z,4.53
2018-04-15T23:23:25.155Z,5.17
2018-04-15T23:25:51.399Z,5.53
2018-04-15T23:28:17.631Z,5.37
2018-04-15T23:30:43.926Z,5.10
2018-04-15T23:33:10.163Z,5.10
2018-04-15T23:35:36.415Z,4.07
2018-04-15T23:38:02.699Z,5.13
2018-04-15T23:40:28.935Z,5.43
2018-04-15T23:42:55.200Z,4.53
2018-04-15T23:45:21.466Z,5.37
2018-04-15T23:47:47.711Z,5.10
2018-04-15T23:50:13.984Z,5.53
2018-04-15T23:52:40.263Z,5.10
2018-04-15T23:55:06.531Z,5.23
2018-04-15T23:57:32.876Z,5.37
2018-04-15T23:59:59.176Z,5.00
